Terminal Aerodrome Forecast
Issued by NWS

Home | Current Version | Previous Version | Text Only | Print | Product List | Glossary On
Versions: 1 2 3 4 5 6 7 8 9 10 11 12 13 14 15 16 17 18 19 20 21
000
FTUS46 KLOX 162300
TAFLGB
TAF
KLGB 162338Z 1700/1724 21008KT P6SM SKC
     FM170500 VRB03KT P6SM BKN012
     FM170800 VRB03KT P6SM OVC015
     FM171500 14005KT P6SM OVC020
     FM171700 18006KT P6SM BKN022
     FM171900 19008KT P6SM SCT025=

USA.gov is the U.S. government's official web portal to all federal, state and local government web resources and services.